Time;durP1;ratioP1;P1;durP2;ratioP2;P2;SDS_P1;SDS_P2;PMS_P1;PMS_P2;Temp;Humidity;BMP_temperature;BMP_pressure;BME280_temperature;BME280_humidity;BME280_pressure;Samples;Min_cycle;Max_cycle;Signal;HPM_P1;HPM_P2
2020/12/12 00:00:48;;;;;;;56.75;31.67;;;6.70;99.90;;;;;;5053918;28;20040;-71
2020/12/12 00:03:14;;;;;;;62.38;32.80;;;6.70;99.90;;;;;;5058547;28;20492;-70
2020/12/12 00:05:41;;;;;;;60.58;31.42;;;6.80;99.90;;;;;;5053174;28;20033;-71
2020/12/12 00:08:06;;;;;;;64.97;34.05;;;6.80;99.90;;;;;;5053463;28;20434;-71
2020/12/12 00:10:32;;;;;;;61.83;31.92;;;6.80;99.90;;;;;;5057060;28;20038;-71
2020/12/12 00:12:57;;;;;;;64.35;34.13;;;6.80;99.90;;;;;;5058243;28;20064;-71
2020/12/12 00:15:23;;;;;;;66.32;33.53;;;6.80;99.90;;;;;;5068100;28;20111;-71
2020/12/12 00:17:49;;;;;;;63.95;34.17;;;6.90;99.90;;;;;;5059128;28;20024;-71
2020/12/12 00:20:14;;;;;;;62.83;33.88;;;6.90;99.90;;;;;;5060571;28;20032;-71
2020/12/12 00:22:40;;;;;;;66.95;32.42;;;7.00;99.90;;;;;;5053804;28;20462;-72
2020/12/12 00:25:08;;;;;;;66.30;32.40;;;7.00;99.90;;;;;;5056353;28;20036;-70
2020/12/12 00:27:35;;;;;;;70.00;34.17;;;7.00;99.90;;;;;;5065536;28;20150;-70
2020/12/12 00:30:01;;;;;;;67.65;33.05;;;6.90;99.90;;;;;;5059486;28;20036;-71
2020/12/12 00:32:26;;;;;;;79.05;35.67;;;7.00;99.90;;;;;;5063837;28;20394;-70
2020/12/12 00:34:52;;;;;;;108.35;39.10;;;7.00;99.90;;;;;;5061591;28;20036;-70
2020/12/12 00:37:18;;;;;;;61.38;31.75;;;7.00;99.90;;;;;;5056411;28;20043;-70
2020/12/12 00:39:45;;;;;;;68.18;34.00;;;6.90;99.90;;;;;;5059132;28;20036;-70
2020/12/12 00:42:11;;;;;;;81.75;34.67;;;6.90;99.90;;;;;;5054202;28;20037;-71
2020/12/12 00:44:37;;;;;;;76.55;35.40;;;6.90;99.90;;;;;;5056247;28;20073;-71
2020/12/12 00:47:04;;;;;;;75.95;33.83;;;6.90;99.90;;;;;;5065802;28;20096;-70
2020/12/12 00:49:30;;;;;;;76.63;33.55;;;7.00;99.90;;;;;;5062764;28;20021;-71
2020/12/12 00:51:56;;;;;;;82.82;34.95;;;6.90;99.90;;;;;;5053494;28;20034;-70
2020/12/12 00:54:22;;;;;;;75.57;33.55;;;7.00;99.90;;;;;;5051472;28;20017;-70
2020/12/12 00:56:47;;;;;;;65.22;32.28;;;7.00;99.90;;;;;;5056829;28;20029;-71
2020/12/12 00:59:14;;;;;;;80.35;34.83;;;7.00;99.90;;;;;;5056618;28;20017;-71
2020/12/12 01:01:39;;;;;;;64.32;32.35;;;7.00;99.90;;;;;;5053552;28;20082;-71
2020/12/12 01:04:05;;;;;;;71.68;33.67;;;6.90;99.90;;;;;;5051097;28;20025;-70
2020/12/12 01:06:31;;;;;;;64.50;32.88;;;7.00;99.90;;;;;;5053027;28;20024;-70
2020/12/12 01:08:56;;;;;;;67.63;31.73;;;7.00;99.90;;;;;;5050252;28;20035;-71
2020/12/12 01:11:22;;;;;;;70.18;33.30;;;7.00;99.90;;;;;;5054006;28;20035;-70
2020/12/12 01:13:48;;;;;;;73.88;34.67;;;7.00;99.90;;;;;;5053797;28;20099;-70
2020/12/12 01:16:15;;;;;;;81.22;37.03;;;7.00;99.90;;;;;;5054996;28;20477;-70
2020/12/12 01:18:41;;;;;;;78.22;33.30;;;7.00;99.90;;;;;;5051126;28;20017;-70
2020/12/12 01:21:07;;;;;;;77.00;33.25;;;7.00;99.90;;;;;;5054519;28;20155;-71
2020/12/12 01:23:33;;;;;;;85.82;35.95;;;7.00;99.90;;;;;;5054365;28;20104;-71
2020/12/12 01:25:59;;;;;;;102.60;38.40;;;7.00;99.90;;;;;;5052094;28;20028;-70
2020/12/12 01:28:25;;;;;;;92.18;37.55;;;7.00;99.90;;;;;;5051175;28;20079;-70
2020/12/12 01:30:53;;;;;;;210.48;52.90;;;7.00;99.90;;;;;;5054258;28;20078;-70
2020/12/12 01:33:19;;;;;;;103.47;37.72;;;7.00;99.90;;;;;;5050223;28;20415;-70
2020/12/12 01:35:45;;;;;;;101.57;37.88;;;7.00;99.90;;;;;;5051121;28;20120;-71
2020/12/12 01:38:11;;;;;;;91.18;37.97;;;7.00;99.90;;;;;;5057729;28;20092;-70
2020/12/12 01:40:37;;;;;;;76.88;34.67;;;6.90;99.90;;;;;;5061366;28;20025;-71
2020/12/12 01:43:03;;;;;;;68.38;32.17;;;7.00;99.90;;;;;;5057202;28;20041;-71
2020/12/12 01:45:29;;;;;;;67.78;32.72;;;7.00;99.90;;;;;;5058863;28;20031;-70
2020/12/12 01:47:57;;;;;;;79.38;34.13;;;7.00;99.90;;;;;;5063466;28;20112;-70
2020/12/12 01:50:24;;;;;;;66.07;33.67;;;7.10;99.90;;;;;;5060797;28;20020;-71
2020/12/12 01:52:53;;;;;;;68.80;33.05;;;7.10;99.90;;;;;;5056035;28;20032;-71
2020/12/12 01:55:19;;;;;;;63.53;30.77;;;7.10;99.90;;;;;;5058545;28;20095;-71
2020/12/12 01:57:50;;;;;;;86.05;36.80;;;7.20;99.90;;;;;;5057478;28;20033;-70
2020/12/12 02:00:16;;;;;;;80.93;35.22;;;7.20;99.90;;;;;;5052904;28;20859;-70
2020/12/12 02:02:47;;;;;;;84.07;36.30;;;7.20;99.90;;;;;;5060728;28;20107;-70
2020/12/12 02:05:38;;;;;;;83.67;36.70;;;7.30;99.90;;;;;;5056425;28;20470;-70
2020/12/12 02:08:11;;;;;;;69.13;33.47;;;7.30;99.90;;;;;;5051323;28;20020;-71
2020/12/12 02:10:42;;;;;;;70.57;35.05;;;7.30;99.90;;;;;;5047318;28;20393;-71
2020/12/12 02:13:09;;;;;;;64.18;33.63;;;7.30;99.90;;;;;;5057145;28;20044;-71
2020/12/12 02:15:35;;;;;;;67.97;33.53;;;7.30;99.90;;;;;;5054648;28;20018;-71
2020/12/12 02:18:01;;;;;;;75.70;34.45;;;7.30;99.90;;;;;;5062291;28;20048;-70
2020/12/12 02:20:27;;;;;;;103.30;41.17;;;7.30;99.90;;;;;;5062718;28;20205;-71
2020/12/12 02:22:53;;;;;;;74.88;34.63;;;7.30;99.90;;;;;;5059223;28;20619;-71
2020/12/12 02:25:19;;;;;;;96.13;37.45;;;7.30;99.90;;;;;;5060656;28;20099;-71
2020/12/12 02:27:45;;;;;;;84.57;37.92;;;7.30;99.90;;;;;;5062199;28;20067;-71
2020/12/12 02:30:11;;;;;;;103.25;39.40;;;7.30;99.90;;;;;;5062542;28;20382;-71
2020/12/12 02:32:36;;;;;;;82.40;36.92;;;7.30;99.90;;;;;;5060967;28;20035;-72
2020/12/12 02:35:05;;;;;;;126.65;43.30;;;7.40;99.90;;;;;;5058272;28;20414;-72
2020/12/12 02:37:31;;;;;;;95.25;37.70;;;7.40;99.90;;;;;;5059482;28;20077;-72
2020/12/12 02:39:56;;;;;;;112.60;43.75;;;7.40;99.90;;;;;;5059468;28;20490;-71
2020/12/12 02:42:22;;;;;;;85.65;37.03;;;7.50;99.90;;;;;;5058805;28;20036;-72
2020/12/12 02:44:54;;;;;;;120.43;40.80;;;7.50;99.90;;;;;;5064584;28;20036;-71
2020/12/12 02:47:21;;;;;;;109.78;40.20;;;7.40;99.90;;;;;;5056547;28;20020;-71
2020/12/12 02:50:10;;;;;;;74.53;33.35;;;7.40;99.90;;;;;;5062598;28;20096;-71
2020/12/12 02:52:38;;;;;;;89.63;38.35;;;7.50;99.90;;;;;;5059879;28;20068;-72
2020/12/12 02:55:06;;;;;;;103.50;39.22;;;7.40;99.90;;;;;;5058579;28;20141;-72
2020/12/12 02:57:33;;;;;;;122.82;42.63;;;7.40;99.90;;;;;;5081091;28;20013;-72
2020/12/12 02:59:59;;;;;;;94.35;37.47;;;7.50;99.90;;;;;;5060276;28;20508;-72
2020/12/12 03:02:25;;;;;;;79.53;35.72;;;7.50;99.90;;;;;;5057378;28;20047;-72
2020/12/12 03:04:51;;;;;;;91.43;38.03;;;7.50;99.90;;;;;;5062362;28;20029;-71
2020/12/12 03:07:17;;;;;;;106.25;40.75;;;7.50;99.90;;;;;;5059322;28;20025;-71
2020/12/12 03:09:43;;;;;;;129.68;43.53;;;7.40;99.90;;;;;;5061309;28;20021;-71
2020/12/12 03:12:09;;;;;;;72.63;33.25;;;7.50;99.90;;;;;;5054673;28;20040;-72
2020/12/12 03:14:35;;;;;;;77.03;34.42;;;7.50;99.90;;;;;;5059819;28;20035;-71
2020/12/12 03:17:00;;;;;;;91.95;38.53;;;7.60;99.90;;;;;;5058638;28;20063;-71
2020/12/12 03:19:26;;;;;;;80.57;35.40;;;7.50;99.90;;;;;;5063144;28;20048;-71
2020/12/12 03:21:51;;;;;;;76.10;33.45;;;7.50;99.90;;;;;;5066212;28;20040;-72
2020/12/12 03:24:17;;;;;;;78.13;32.75;;;7.60;99.90;;;;;;5064427;28;20067;-71
2020/12/12 03:26:43;;;;;;;89.13;35.97;;;7.70;99.90;;;;;;5064434;28;22624;-71
2020/12/12 03:29:09;;;;;;;112.82;41.75;;;7.60;99.90;;;;;;5058369;28;20028;-71
2020/12/12 03:31:34;;;;;;;102.47;38.55;;;7.60;99.90;;;;;;5053732;28;20071;-71
2020/12/12 03:34:00;;;;;;;87.55;34.33;;;7.60;99.90;;;;;;5054327;28;20496;-71
2020/12/12 03:36:26;;;;;;;78.68;32.42;;;7.70;99.90;;;;;;5054634;28;20111;-72
2020/12/12 03:38:51;;;;;;;71.13;31.02;;;7.70;99.90;;;;;;5055643;28;20033;-71
2020/12/12 03:41:17;;;;;;;81.15;32.38;;;7.70;99.90;;;;;;5059903;28;20043;-72
2020/12/12 03:43:43;;;;;;;92.82;35.75;;;7.80;99.90;;;;;;5054384;28;20087;-71
2020/12/12 03:46:08;;;;;;;71.55;30.77;;;7.80;99.90;;;;;;5052251;28;20442;-71
2020/12/12 03:48:34;;;;;;;105.38;35.65;;;7.80;99.90;;;;;;5052357;28;20054;-70
2020/12/12 03:51:00;;;;;;;132.10;40.30;;;7.80;99.90;;;;;;5056207;28;20064;-71
2020/12/12 03:53:25;;;;;;;99.72;35.30;;;7.70;99.90;;;;;;5052657;28;20462;-71
2020/12/12 03:55:51;;;;;;;117.03;37.47;;;7.60;99.90;;;;;;5054419;28;20075;-71
2020/12/12 03:58:16;;;;;;;93.78;36.10;;;7.60;99.90;;;;;;5052726;28;20078;-72
2020/12/12 04:00:42;;;;;;;116.88;37.67;;;7.70;99.90;;;;;;5051551;28;20485;-71
2020/12/12 04:03:08;;;;;;;68.60;29.38;;;7.60;99.90;;;;;;5055924;28;20041;-71
2020/12/12 04:05:33;;;;;;;65.45;28.38;;;7.70;99.90;;;;;;5049751;28;20021;-72
2020/12/12 04:07:59;;;;;;;71.80;29.45;;;7.80;99.90;;;;;;5053195;28;20037;-71
2020/12/12 04:10:25;;;;;;;71.72;30.17;;;7.80;99.90;;;;;;5052071;28;20032;-72
2020/12/12 04:12:50;;;;;;;87.47;34.80;;;7.80;99.90;;;;;;5053980;28;20056;-72
2020/12/12 04:15:16;;;;;;;99.35;37.05;;;7.80;99.90;;;;;;5049608;28;20021;-72
2020/12/12 04:17:41;;;;;;;112.35;36.28;;;7.80;99.90;;;;;;5053498;28;20104;-72
2020/12/12 04:20:07;;;;;;;88.32;33.50;;;7.80;99.90;;;;;;5051538;28;20070;-71
2020/12/12 04:22:33;;;;;;;137.45;38.92;;;7.80;99.90;;;;;;5052579;28;20074;-71
2020/12/12 04:24:58;;;;;;;106.80;34.95;;;7.90;99.90;;;;;;5048924;28;20492;-71
2020/12/12 04:27:24;;;;;;;133.77;39.15;;;7.90;99.90;;;;;;5052733;28;20500;-72
2020/12/12 04:29:50;;;;;;;106.00;36.63;;;7.80;99.90;;;;;;5051328;28;20021;-72
2020/12/12 04:32:15;;;;;;;82.05;32.80;;;7.90;99.90;;;;;;5054480;28;20025;-71
2020/12/12 04:34:41;;;;;;;100.07;31.83;;;7.90;99.90;;;;;;5049624;28;20025;-71
2020/12/12 04:37:06;;;;;;;86.88;30.50;;;7.90;99.90;;;;;;5050731;28;20363;-72
2020/12/12 04:39:32;;;;;;;91.88;30.35;;;8.00;99.90;;;;;;5052247;28;20108;-71
2020/12/12 04:41:58;;;;;;;89.93;29.02;;;8.00;99.90;;;;;;5053721;28;20146;-72
2020/12/12 04:44:24;;;;;;;104.75;31.60;;;8.10;99.90;;;;;;5053233;28;20021;-72
2020/12/12 04:46:51;;;;;;;95.90;29.95;;;8.00;99.90;;;;;;5051628;28;20535;-72
2020/12/12 04:49:17;;;;;;;88.95;29.38;;;8.10;99.90;;;;;;5052892;28;20051;-71
2020/12/12 04:51:47;;;;;;;92.93;29.83;;;8.10;99.90;;;;;;5049539;28;20060;-71
2020/12/12 04:54:19;;;;;;;80.28;28.90;;;8.10;99.90;;;;;;5049895;28;20377;-72
2020/12/12 04:56:45;;;;;;;87.88;28.55;;;8.10;99.90;;;;;;5055005;28;20021;-72
2020/12/12 04:59:12;;;;;;;96.50;30.08;;;8.10;99.90;;;;;;5052110;28;20080;-73
2020/12/12 05:01:38;;;;;;;90.90;29.23;;;8.20;99.90;;;;;;5057546;28;20456;-71
2020/12/12 05:04:07;;;;;;;103.90;31.38;;;8.20;99.90;;;;;;5055664;28;20032;-71
2020/12/12 05:06:33;;;;;;;93.30;30.13;;;8.20;99.90;;;;;;5059384;28;20032;-71
2020/12/12 05:08:59;;;;;;;94.70;29.98;;;8.20;99.90;;;;;;5064562;28;20012;-71
2020/12/12 05:11:25;;;;;;;85.07;27.02;;;8.20;99.90;;;;;;5053463;28;20040;-72
2020/12/12 05:13:52;;;;;;;90.10;29.13;;;8.20;99.90;;;;;;5054361;28;20082;-72
2020/12/12 05:16:18;;;;;;;107.85;30.13;;;8.30;99.90;;;;;;5056566;28;20469;-71
2020/12/12 05:18:44;;;;;;;100.38;30.63;;;8.30;99.90;;;;;;5055758;28;20453;-72
2020/12/12 05:21:11;;;;;;;96.38;29.27;;;8.30;99.90;;;;;;5057034;28;20040;-73
2020/12/12 05:23:37;;;;;;;90.10;28.48;;;8.40;99.90;;;;;;5058883;28;20025;-73
2020/12/12 05:26:03;;;;;;;106.65;29.88;;;8.40;99.90;;;;;;5057520;28;20052;-73
2020/12/12 05:28:29;;;;;;;81.55;26.60;;;8.40;99.90;;;;;;5058354;28;20103;-71
2020/12/12 05:30:54;;;;;;;103.25;28.35;;;8.50;99.90;;;;;;5065867;28;20395;-72
2020/12/12 05:33:22;;;;;;;92.18;27.80;;;8.50;99.90;;;;;;5058965;28;20029;-72
2020/12/12 05:35:49;;;;;;;108.82;30.38;;;8.50;99.90;;;;;;5055093;28;20033;-73
2020/12/12 05:38:16;;;;;;;78.03;26.50;;;8.40;99.90;;;;;;5052814;28;20505;-72
2020/12/12 05:40:43;;;;;;;109.95;30.88;;;8.40;99.90;;;;;;5058942;28;20033;-71
2020/12/12 05:43:11;;;;;;;108.75;29.63;;;8.50;99.90;;;;;;5062346;28;20098;-71
2020/12/12 05:45:39;;;;;;;110.70;30.27;;;8.50;99.90;;;;;;5056295;28;20100;-72
2020/12/12 05:48:09;;;;;;;100.78;30.88;;;8.50;99.90;;;;;;5063823;28;20037;-73
2020/12/12 05:50:35;;;;;;;111.60;32.50;;;8.50;99.90;;;;;;5058347;28;20025;-72
2020/12/12 05:53:01;;;;;;;153.57;35.88;;;8.40;99.90;;;;;;5061009;28;20151;-72
2020/12/12 05:55:29;;;;;;;115.35;30.67;;;8.40;99.90;;;;;;5058042;28;20472;-71
2020/12/12 05:57:56;;;;;;;92.75;29.33;;;8.40;99.90;;;;;;5059899;28;20040;-72
2020/12/12 06:00:22;;;;;;;113.07;30.48;;;8.40;99.90;;;;;;5061917;28;20462;-72
2020/12/12 06:03:03;;;;;;;110.47;30.73;;;8.40;99.90;;;;;;5061646;28;20024;-72
2020/12/12 06:05:30;;;;;;;145.38;33.67;;;8.40;99.90;;;;;;5066414;28;20025;-72
2020/12/12 06:08:00;;;;;;;116.93;30.30;;;8.40;99.90;;;;;;5066713;28;20056;-72
2020/12/12 06:10:30;;;;;;;133.57;33.88;;;8.40;99.90;;;;;;5062476;28;20029;-71
2020/12/12 06:13:01;;;;;;;112.70;32.72;;;8.40;99.90;;;;;;5061147;28;20091;-72
2020/12/12 06:15:38;;;;;;;128.35;34.80;;;8.40;99.90;;;;;;5060710;28;20392;-71
2020/12/12 06:18:23;;;;;;;120.57;34.00;;;8.40;99.90;;;;;;5065494;28;20028;-71
2020/12/12 06:20:52;;;;;;;119.80;33.88;;;8.40;99.90;;;;;;5064526;28;20037;-71
2020/12/12 06:23:18;;;;;;;124.95;33.90;;;8.40;99.90;;;;;;5057955;28;20425;-71
2020/12/12 06:25:45;;;;;;;124.60;33.80;;;8.40;99.90;;;;;;5060732;28;20397;-71
2020/12/12 06:28:18;;;;;;;132.45;33.80;;;8.50;99.90;;;;;;5058137;28;20388;-71
2020/12/12 06:30:44;;;;;;;126.03;32.15;;;8.40;99.90;;;;;;5058751;28;20028;-71
2020/12/12 06:33:10;;;;;;;115.22;32.03;;;8.50;99.90;;;;;;5058686;28;20032;-71
2020/12/12 06:35:38;;;;;;;157.85;35.05;;;8.50;99.90;;;;;;5058922;28;20013;-72
2020/12/12 06:38:24;;;;;;;130.65;33.45;;;8.40;99.90;;;;;;5054803;28;20020;-72
2020/12/12 06:40:51;;;;;;;113.22;28.95;;;8.60;99.90;;;;;;5058688;28;20107;-72
2020/12/12 06:43:54;;;;;;;147.55;34.00;;;8.60;99.90;;;;;;5061928;28;20036;-72
2020/12/12 06:46:19;;;;;;;159.13;47.60;;;8.60;99.90;;;;;;5058110;28;20036;-71
2020/12/12 06:48:45;;;;;;;124.35;30.95;;;8.50;99.90;;;;;;5059655;28;20025;-71
2020/12/12 06:51:10;;;;;;;147.13;34.22;;;8.60;99.90;;;;;;5059490;28;20028;-72
2020/12/12 06:53:36;;;;;;;164.18;35.20;;;8.60;99.90;;;;;;5062509;28;20086;-72
2020/12/12 06:56:15;;;;;;;116.15;31.27;;;8.50;99.90;;;;;;5064020;28;20021;-71
2020/12/12 06:58:42;;;;;;;32.20;14.20;;;8.50;99.90;;;;;;5061408;28;20048;-72
2020/12/12 07:01:28;;;;;;;125.03;32.40;;;8.60;99.90;;;;;;5053368;28;20029;-72
2020/12/12 07:04:06;;;;;;;120.13;33.05;;;8.60;99.90;;;;;;5056537;28;20129;-71
2020/12/12 07:06:33;;;;;;;115.78;32.15;;;8.60;99.90;;;;;;5062105;28;20063;-72
2020/12/12 07:09:04;;;;;;;127.25;33.30;;;8.60;99.90;;;;;;5059505;28;20040;-72
2020/12/12 07:11:31;;;;;;;128.68;32.63;;;8.60;99.90;;;;;;5068871;28;20028;-72
2020/12/12 07:13:57;;;;;;;153.40;32.90;;;8.60;99.90;;;;;;5057476;28;20032;-72
2020/12/12 07:16:24;;;;;;;132.38;31.98;;;8.60;99.90;;;;;;5052966;28;20025;-71
2020/12/12 07:18:50;;;;;;;150.88;36.88;;;8.60;99.90;;;;;;5056306;28;20047;-71
2020/12/12 07:21:16;;;;;;;125.13;33.60;;;8.60;99.90;;;;;;5058715;28;20040;-71
2020/12/12 07:23:42;;;;;;;130.70;32.33;;;8.60;99.90;;;;;;5056382;28;20028;-71
2020/12/12 07:26:08;;;;;;;141.70;33.38;;;8.60;99.90;;;;;;5056978;28;20033;-71
2020/12/12 07:28:33;;;;;;;130.27;33.08;;;8.60;99.90;;;;;;5056702;28;20426;-73
2020/12/12 07:31:01;;;;;;;139.55;33.00;;;8.60;99.90;;;;;;5066113;28;20025;-76
2020/12/12 07:33:27;;;;;;;129.38;33.92;;;8.70;99.90;;;;;;5061320;28;20068;-73
2020/12/12 07:35:53;;;;;;;143.50;34.33;;;8.70;99.90;;;;;;5053869;28;20021;-74
2020/12/12 07:38:18;;;;;;;143.80;33.97;;;8.70;99.90;;;;;;5057051;28;20029;-73
2020/12/12 07:40:44;;;;;;;142.55;32.35;;;8.70;99.90;;;;;;5063909;28;20044;-74
2020/12/12 07:43:10;;;;;;;133.10;32.35;;;8.70;99.90;;;;;;5056571;28;20029;-72
2020/12/12 07:48:17;;;;;;;143.98;33.85;;;8.70;99.90;;;;;;5062465;28;20111;-72
2020/12/12 07:50:43;;;;;;;145.25;35.92;;;8.80;99.90;;;;;;5056481;28;20128;-72
2020/12/12 07:53:14;;;;;;;136.50;33.75;;;8.80;99.90;;;;;;5055284;28;20024;-71
2020/12/12 07:55:45;;;;;;;141.15;34.28;;;8.80;99.90;;;;;;5059525;28;20108;-73
2020/12/12 07:58:17;;;;;;;129.55;33.95;;;8.80;99.90;;;;;;5058289;28;20028;-71
2020/12/12 08:00:43;;;;;;;;;;;8.70;99.90;;;;;;5060336;28;20024;-73
2020/12/12 08:03:09;;;;;;;156.20;35.20;;;8.80;99.90;;;;;;5062356;28;19919;-73
2020/12/12 08:05:34;;;;;;;152.32;35.10;;;8.90;99.90;;;;;;5058219;28;20029;-71
2020/12/12 08:08:09;;;;;;;151.40;34.50;;;8.90;99.90;;;;;;5059047;28;20024;-71
2020/12/12 08:10:34;;;;;;;128.77;32.45;;;8.90;99.90;;;;;;5059746;28;20032;-72
2020/12/12 08:13:00;;;;;;;132.70;34.63;;;8.90;99.90;;;;;;5058837;28;20024;-72
2020/12/12 08:15:32;;;;;;;139.85;34.30;;;9.00;99.90;;;;;;5054555;28;20077;-72
2020/12/12 08:18:08;;;;;;;125.53;31.67;;;8.90;99.90;;;;;;5057951;28;20431;-72
2020/12/12 08:20:34;;;;;;;146.27;34.70;;;8.90;99.90;;;;;;5061006;28;20326;-71
2020/12/12 08:23:00;;;;;;;168.52;36.78;;;8.90;99.90;;;;;;5055667;28;20060;-71
2020/12/12 08:25:26;;;;;;;42.40;16.50;;;8.90;99.90;;;;;;5057440;28;20044;-73
2020/12/12 08:27:55;;;;;;;151.93;36.33;;;9.00;99.90;;;;;;5059172;28;20485;-71
2020/12/12 08:30:20;;;;;;;142.75;36.00;;;9.10;99.90;;;;;;5057287;28;20059;-71
2020/12/12 08:32:49;;;;;;;151.13;35.25;;;9.00;99.90;;;;;;5059239;28;20032;-72
2020/12/12 08:35:21;;;;;;;150.73;36.65;;;9.10;99.90;;;;;;5055517;28;20485;-72
2020/12/12 08:37:56;;;;;;;;;;;9.10;99.90;;;;;;5056795;28;20029;-71
2020/12/12 08:40:33;;;;;;;146.82;33.88;;;9.10;99.90;;;;;;5053527;28;19920;-72
2020/12/12 08:43:08;;;;;;;152.25;37.25;;;9.20;99.90;;;;;;5059013;28;20041;-73
2020/12/12 08:45:36;;;;;;;149.43;36.50;;;9.20;99.90;;;;;;5057331;28;20560;-73
2020/12/12 08:48:08;;;;;;;134.30;36.97;;;9.20;99.90;;;;;;5058957;28;20028;-71
2020/12/12 08:50:47;;;;;;;132.05;34.88;;;9.20;99.90;;;;;;5055289;28;20070;-71
2020/12/12 08:53:33;;;;;;;139.55;35.05;;;9.20;99.90;;;;;;5059194;28;20025;-72
2020/12/12 08:56:08;;;;;;;166.85;38.92;;;9.20;99.90;;;;;;5057318;28;20028;-71
2020/12/12 08:58:46;;;;;;;134.90;35.03;;;9.20;99.90;;;;;;5059189;28;20052;-72
2020/12/12 09:01:20;;;;;;;129.88;37.33;;;9.30;99.90;;;;;;5053013;28;20043;-71
2020/12/12 09:04:02;;;;;;;151.82;37.15;;;9.30;99.90;;;;;;5054750;28;20025;-71
2020/12/12 09:06:30;;;;;;;;;;;9.30;99.90;;;;;;5056600;28;20013;-71
2020/12/12 09:09:23;;;;;;;159.57;37.10;;;9.30;99.90;;;;;;5060692;28;19974;-72
2020/12/12 09:11:53;;;;;;;155.75;38.85;;;9.40;99.90;;;;;;5057564;28;20072;-71
2020/12/12 09:14:19;;;;;;;156.75;38.25;;;9.40;99.90;;;;;;5055193;28;20021;-72
2020/12/12 09:17:13;;;;;;;143.82;38.35;;;9.50;99.90;;;;;;5054688;28;20040;-72
2020/12/12 09:19:39;;;;;;;147.75;36.92;;;9.40;99.90;;;;;;5056710;28;20067;-71
2020/12/12 09:22:09;;;;;;;136.32;35.17;;;9.50;99.90;;;;;;5054456;28;20096;-71
2020/12/12 09:24:35;;;;;;;134.13;34.83;;;9.40;99.90;;;;;;5054912;28;20021;-72
2020/12/12 09:27:01;;;;;;;120.72;33.35;;;9.50;99.90;;;;;;5063885;28;20134;-71
2020/12/12 09:29:27;;;;;;;136.10;38.20;;;9.50;99.90;;;;;;5058921;28;20028;-71
2020/12/12 09:31:54;;;;;;;137.25;38.58;;;9.60;99.90;;;;;;5056211;28;20504;-72
2020/12/12 09:34:20;;;;;;;126.90;35.90;;;9.60;99.90;;;;;;5056336;28;20028;-72
2020/12/12 09:36:48;;;;;;;117.05;36.85;;;9.60;99.90;;;;;;5048360;28;20067;-73
2020/12/12 09:39:14;;;;;;;108.95;34.13;;;9.60;99.90;;;;;;5052401;28;20435;-72
2020/12/12 09:41:40;;;;;;;116.28;33.55;;;9.70;99.90;;;;;;5051069;28;20040;-73
2020/12/12 09:44:06;;;;;;;124.32;37.25;;;9.70;99.90;;;;;;5048654;28;20025;-73
2020/12/12 09:46:32;;;;;;;114.63;34.03;;;9.70;99.90;;;;;;5050930;28;20464;-73
2020/12/12 09:48:58;;;;;;;104.53;34.00;;;9.70;99.90;;;;;;5052046;28;20075;-73
2020/12/12 09:51:24;;;;;;;122.70;35.05;;;9.80;99.90;;;;;;5050803;28;20092;-73
2020/12/12 09:53:50;;;;;;;113.43;34.75;;;9.80;99.90;;;;;;5050541;28;20029;-73
2020/12/12 09:56:16;;;;;;;98.18;31.20;;;9.90;99.90;;;;;;5057340;28;20037;-73
2020/12/12 09:58:45;;;;;;;99.78;30.55;;;9.90;99.90;;;;;;5054274;28;20096;-73
2020/12/12 10:01:15;;;;;;;102.70;30.58;;;9.90;99.90;;;;;;5051907;28;20037;-73
2020/12/12 10:03:41;;;;;;;95.47;30.05;;;9.90;99.90;;;;;;5050755;28;20020;-73
2020/12/12 10:06:08;;;;;;;93.90;31.60;;;10.00;99.90;;;;;;5050789;28;20375;-73
2020/12/12 10:08:34;;;;;;;106.38;32.97;;;10.00;99.90;;;;;;5051454;28;20025;-73
2020/12/12 10:11:00;;;;;;;90.75;31.75;;;10.10;99.90;;;;;;5050065;28;20055;-73
2020/12/12 10:13:25;;;;;;;106.22;31.02;;;10.10;99.90;;;;;;5050800;28;20058;-73
2020/12/12 10:15:51;;;;;;;92.53;27.85;;;10.10;99.90;;;;;;5052196;28;20022;-73
2020/12/12 10:18:16;;;;;;;86.90;28.85;;;10.10;99.90;;;;;;5055907;28;20033;-73
2020/12/12 10:20:42;;;;;;;80.72;26.55;;;10.10;99.90;;;;;;5049885;28;20033;-72
2020/12/12 10:23:08;;;;;;;89.93;26.88;;;10.10;99.90;;;;;;5051772;28;20021;-73
2020/12/12 10:25:34;;;;;;;95.60;30.58;;;10.20;99.90;;;;;;5053314;28;20021;-73
2020/12/12 10:28:00;;;;;;;94.63;29.13;;;10.20;99.90;;;;;;5051882;28;20021;-73
2020/12/12 10:30:25;;;;;;;84.80;30.13;;;10.10;99.90;;;;;;5053498;28;20020;-72
2020/12/12 10:32:51;;;;;;;87.78;28.20;;;10.20;99.90;;;;;;5057171;28;20025;-73
2020/12/12 10:35:17;;;;;;;81.40;25.98;;;10.20;99.90;;;;;;5056932;28;20024;-73
2020/12/12 10:37:43;;;;;;;96.75;28.20;;;10.20;99.90;;;;;;5064415;28;20013;-73
2020/12/12 10:40:15;;;;;;;81.53;25.63;;;10.20;99.90;;;;;;5059859;28;20068;-73
2020/12/12 10:42:40;;;;;;;83.67;25.93;;;10.20;99.90;;;;;;5055983;28;20037;-73
2020/12/12 10:45:07;;;;;;;65.18;26.83;;;10.10;99.90;;;;;;5055404;28;20256;-73
2020/12/12 10:47:33;;;;;;;83.22;26.15;;;10.10;99.90;;;;;;5061741;28;20025;-73
2020/12/12 10:49:59;;;;;;;76.28;23.75;;;10.10;99.90;;;;;;5062591;28;20036;-73
2020/12/12 10:52:25;;;;;;;76.80;25.48;;;10.10;99.90;;;;;;5060787;28;20024;-73
2020/12/12 10:54:51;;;;;;;78.93;25.40;;;10.20;99.90;;;;;;5064858;28;20068;-73
2020/12/12 10:57:17;;;;;;;68.68;24.52;;;10.20;99.90;;;;;;5055966;28;20021;-72
2020/12/12 10:59:43;;;;;;;71.20;24.33;;;10.20;99.90;;;;;;5061766;28;20041;-72
2020/12/12 11:02:13;;;;;;;76.05;26.23;;;10.20;99.90;;;;;;5062393;28;20040;-73
2020/12/12 11:04:39;;;;;;;69.03;24.58;;;10.20;99.90;;;;;;5054266;28;20024;-72
2020/12/12 11:07:05;;;;;;;88.57;27.00;;;10.20;99.90;;;;;;5053083;28;20025;-73
2020/12/12 11:09:32;;;;;;;72.70;27.33;;;10.20;99.90;;;;;;5055822;28;20493;-73
2020/12/12 11:11:58;;;;;;;80.80;28.30;;;10.20;99.90;;;;;;5064647;28;20024;-73
2020/12/12 11:14:29;;;;;;;87.03;27.05;;;10.20;99.90;;;;;;5057720;28;20090;-73
2020/12/12 11:16:56;;;;;;;96.03;29.40;;;10.20;99.90;;;;;;5053479;28;20531;-72
2020/12/12 11:19:22;;;;;;;100.10;28.88;;;10.20;99.90;;;;;;5060540;28;20020;-72
2020/12/12 11:21:48;;;;;;;100.32;32.08;;;10.30;99.90;;;;;;5053932;28;20037;-72
2020/12/12 11:24:14;;;;;;;90.35;29.48;;;10.20;99.90;;;;;;5052158;28;20031;-72
2020/12/12 11:26:39;;;;;;;91.90;30.85;;;10.20;99.90;;;;;;5054029;28;20028;-72
2020/12/12 11:29:05;;;;;;;97.35;30.67;;;10.20;99.90;;;;;;5053053;28;20115;-72
2020/12/12 11:31:31;;;;;;;104.38;31.63;;;10.20;99.90;;;;;;5054267;28;20025;-72
2020/12/12 11:34:41;;;;;;;98.65;32.30;;;10.20;99.90;;;;;;5055043;28;20036;-72
2020/12/12 11:46:49;;;;;;;104.53;35.42;;;10.10;99.90;;;;;;5058461;28;20060;-73
2020/12/12 11:49:15;;;;;;;120.22;36.70;;;10.10;99.90;;;;;;5062038;28;20017;-72
2020/12/12 11:51:41;;;;;;;117.22;37.50;;;10.20;99.90;;;;;;5057252;28;20021;-72
2020/12/12 11:54:07;;;;;;;120.57;38.10;;;10.20;99.90;;;;;;5063783;28;20044;-72
2020/12/12 11:56:33;;;;;;;106.63;37.58;;;10.30;99.90;;;;;;5059624;28;20115;-74
2020/12/12 11:58:58;;;;;;;116.10;37.72;;;10.20;99.90;;;;;;5059625;28;20029;-73
2020/12/12 12:01:25;;;;;;;128.48;38.03;;;10.30;99.90;;;;;;5057677;28;20040;-73
2020/12/12 12:03:52;;;;;;;123.30;37.47;;;10.30;99.90;;;;;;5056057;28;20523;-72
2020/12/12 12:06:19;;;;;;;123.03;34.03;;;10.30;99.90;;;;;;5062051;28;20029;-72
2020/12/12 12:11:31;;;;;;;118.03;37.25;;;10.40;99.90;;;;;;5058974;28;20033;-72
2020/12/12 12:14:05;;;;;;;139.65;57.58;;;10.40;99.90;;;;;;5058464;28;20442;-72
2020/12/12 12:16:36;;;;;;;126.70;39.03;;;10.40;99.90;;;;;;5060226;28;20138;-73
2020/12/12 12:19:03;;;;;;;98.43;35.63;;;10.40;99.90;;;;;;5053734;28;20020;-72
2020/12/12 12:21:29;;;;;;;116.40;38.22;;;10.40;99.90;;;;;;5066533;28;20123;-73
2020/12/12 12:23:55;;;;;;;105.60;34.63;;;10.50;99.90;;;;;;5060627;28;20438;-73
2020/12/12 12:26:20;;;;;;;112.68;35.47;;;10.50;99.90;;;;;;5055303;28;20033;-73
2020/12/12 12:28:46;;;;;;;112.90;39.92;;;10.50;99.90;;;;;;5055476;28;20024;-75
2020/12/12 12:31:12;;;;;;;88.80;33.38;;;10.50;99.90;;;;;;5058489;28;20492;-76
2020/12/12 12:33:37;;;;;;;111.75;35.35;;;10.60;99.90;;;;;;5053493;28;20029;-73
2020/12/12 12:36:03;;;;;;;113.95;34.90;;;10.60;99.90;;;;;;5054036;28;20092;-72
2020/12/12 12:38:29;;;;;;;113.45;36.88;;;10.50;99.90;;;;;;5051718;28;20025;-72
2020/12/12 12:40:54;;;;;;;115.20;37.83;;;10.50;99.90;;;;;;5051907;28;20660;-72
2020/12/12 12:43:20;;;;;;;106.85;37.20;;;10.50;99.90;;;;;;5051324;28;20040;-74
2020/12/12 12:45:45;;;;;;;101.55;36.67;;;10.50;99.90;;;;;;5050187;28;20024;-73
2020/12/12 12:48:11;;;;;;;112.53;37.10;;;10.50;99.90;;;;;;5057214;28;20091;-73